Time;durP1;ratioP1;P1;durP2;ratioP2;P2;SDS_P1;SDS_P2;PMS_P1;PMS_P2;Temp;Humidity;BMP_temperature;BMP_pressure;BME280_temperature;BME280_humidity;BME280_pressure;Samples;Min_cycle;Max_cycle;Signal;HPM_P1;HPM_P2
2023/06/07 00:00:27;;;;;;;6.63;5.22;;;13.00;99.90;;;;;;5044469;28;20180;-87
2023/06/07 00:02:56;;;;;;;5.33;4.80;;;;;;;;;;5020697;28;20182;-87
2023/06/07 00:05:22;;;;;;;5.93;4.45;;;;;;;;;;5052540;28;20806;-88
2023/06/07 00:07:48;;;;;;;5.10;4.60;;;;;;;;;;5040065;28;20194;-88
2023/06/07 00:10:14;;;;;;;4.87;4.37;;;;;;;;;;5051716;28;20476;-87
2023/06/07 00:12:41;;;;;;;6.53;5.07;;;12.80;99.90;;;;;;5049891;28;20508;-89
2023/06/07 00:15:07;;;;;;;10.68;4.75;;;12.80;99.90;;;;;;5051848;28;20441;-88
2023/06/07 00:17:33;;;;;;;6.10;4.40;;;;;;;;;;5052900;28;20224;-87
2023/06/07 00:20:00;;;;;;;5.93;3.93;;;;;;;;;;5051409;28;20181;-88
2023/06/07 00:22:26;;;;;;;5.93;4.60;;;;;;;;;;5052474;28;20487;-88
2023/06/07 00:24:52;;;;;;;8.70;5.00;;;12.80;99.90;;;;;;5050555;28;20209;-87
2023/06/07 00:27:18;;;;;;;6.03;5.43;;;12.80;99.90;;;;;;5052453;28;20916;-87
2023/06/07 00:29:44;;;;;;;7.82;4.60;;;;;;;;;;5052329;28;20424;-88
2023/06/07 00:32:10;;;;;;;7.37;4.13;;;12.70;99.90;;;;;;5048064;28;20259;-87
2023/06/07 00:34:36;;;;;;;6.72;5.30;;;12.70;99.90;;;;;;5054555;28;20851;-88
2023/06/07 00:37:01;;;;;;;6.50;4.20;;;12.70;99.90;;;;;;5040274;28;20201;-87
2023/06/07 00:39:28;;;;;;;6.67;5.40;;;;;;;;;;5039808;28;20185;-86
2023/06/07 00:41:54;;;;;;;5.68;5.18;;;;;;;;;;5054197;28;20768;-88
2023/06/07 00:44:19;;;;;;;5.30;4.67;;;12.50;99.90;;;;;;5052350;28;20188;-89
2023/06/07 00:46:45;;;;;;;6.77;6.07;;;13.80;99.90;;;;;;5051579;28;20443;-87
2023/06/07 00:49:16;;;;;;;7.23;4.60;;;12.30;99.90;;;;;;5037781;28;20622;-89
2023/06/07 00:51:42;;;;;;;4.88;4.38;;;12.30;99.90;;;;;;5045799;28;20282;-87
2023/06/07 00:54:08;;;;;;;8.38;4.90;;;12.30;99.90;;;;;;5049183;28;20323;-88
2023/06/07 00:56:35;;;;;;;7.85;4.53;;;12.40;99.90;;;;;;5035173;28;20704;-87
2023/06/07 00:59:02;;;;;;;6.95;4.95;;;12.40;99.90;;;;;;5052064;28;20188;-89
2023/06/07 01:01:27;;;;;;;8.48;5.63;;;12.40;99.90;;;;;;5050127;28;20212;-88
2023/06/07 01:03:53;;;;;;;6.97;5.67;;;12.40;99.90;;;;;;5050849;28;20185;-86
2023/06/07 01:06:21;;;;;;;5.60;4.90;;;;;;;;;;5037314;28;21221;-88
2023/06/07 01:08:48;;;;;;;6.50;4.90;;;12.30;99.90;;;;;;5052867;28;20650;-87
2023/06/07 01:11:14;;;;;;;4.30;3.90;;;12.30;99.90;;;;;;5034155;28;20288;-88
2023/06/07 01:13:41;;;;;;;10.38;4.88;;;12.30;99.90;;;;;;5046473;28;20192;-88
2023/06/07 01:16:08;;;;;;;6.45;5.28;;;12.30;99.90;;;;;;5058004;28;20204;-87
2023/06/07 01:18:33;;;;;;;10.45;4.57;;;12.30;99.90;;;;;;5053117;28;20185;-87
2023/06/07 01:21:00;;;;;;;6.03;4.43;;;12.20;99.90;;;;;;5039843;28;20751;-87
2023/06/07 01:23:32;;;;;;;5.68;4.32;;;12.10;99.90;;;;;;5055744;28;20181;-88
2023/06/07 01:25:59;;;;;;;6.32;5.18;;;12.10;99.90;;;;;;5035144;28;20177;-88
2023/06/07 01:28:26;;;;;;;6.13;4.40;;;12.00;99.90;;;;;;5052213;28;20197;-86
2023/06/07 01:30:55;;;;;;;7.35;5.60;;;12.10;99.90;;;;;;5017915;28;20759;-87
2023/06/07 01:33:22;;;;;;;6.70;5.22;;;12.10;99.90;;;;;;5032971;28;20452;-87
2023/06/07 01:35:52;;;;;;;7.05;4.70;;;12.10;99.90;;;;;;5047195;28;20196;-87
2023/06/07 01:38:20;;;;;;;6.97;5.47;;;12.10;99.90;;;;;;5032302;28;20228;-89
2023/06/07 01:40:47;;;;;;;6.28;4.82;;;12.10;99.90;;;;;;5031247;28;20209;-88
2023/06/07 01:43:13;;;;;;;6.28;4.95;;;12.10;99.90;;;;;;5032362;28;20177;-89
2023/06/07 01:45:40;;;;;;;6.55;5.18;;;;;;;;;;5048409;28;20308;-87
2023/06/07 01:48:06;;;;;;;8.55;4.43;;;12.10;99.90;;;;;;5050683;28;20184;-88
2023/06/07 01:50:31;;;;;;;5.80;4.73;;;12.10;99.90;;;;;;5029771;28;20211;-89
2023/06/07 01:52:57;;;;;;;7.63;5.40;;;;;;;;;;5048677;28;20480;-87
2023/06/07 01:55:24;;;;;;;7.20;4.65;;;12.00;99.90;;;;;;5046681;28;20754;-87
2023/06/07 01:58:04;;;;;;;7.40;5.07;;;12.00;99.90;;;;;;5024948;28;20265;-89
2023/06/07 02:00:51;;;;;;;14.95;5.40;;;12.00;99.90;;;;;;5045408;28;20214;-86
2023/06/07 02:03:28;;;;;;;5.32;4.45;;;11.90;99.90;;;;;;5051074;28;20169;-89
2023/06/07 02:06:02;;;;;;;5.30;4.10;;;11.90;99.90;;;;;;5036985;28;20177;-87
2023/06/07 02:08:42;;;;;;;5.05;4.57;;;12.00;99.90;;;;;;5026717;28;20243;-88
2023/06/07 02:11:08;;;;;;;5.53;5.00;;;11.90;99.90;;;;;;5049903;28;20266;-89
2023/06/07 02:13:36;;;;;;;7.30;4.20;;;11.80;99.90;;;;;;5032119;28;20245;-88
2023/06/07 02:16:05;;;;;;;6.35;5.13;;;11.70;99.90;;;;;;5048207;28;20593;-88
2023/06/07 02:18:36;;;;;;;6.38;4.50;;;11.70;99.90;;;;;;5031802;28;20187;-87
2023/06/07 02:21:02;;;;;;;8.20;5.43;;;11.70;99.90;;;;;;5047058;28;20192;-88
2023/06/07 02:23:28;;;;;;;6.80;5.00;;;11.70;99.90;;;;;;5050598;28;20903;-87
2023/06/07 02:25:53;;;;;;;5.50;4.13;;;11.60;99.90;;;;;;5049059;28;20906;-88
2023/06/07 02:28:19;;;;;;;6.30;5.03;;;12.50;99.90;;;;;;5033593;28;20199;-88
2023/06/07 02:30:44;;;;;;;5.17;4.43;;;11.70;99.90;;;;;;5048039;28;20319;-88
2023/06/07 02:33:13;;;;;;;6.30;5.27;;;11.70;99.90;;;;;;5041149;28;20246;-87
2023/06/07 02:35:40;;;;;;;6.15;4.97;;;11.60;99.90;;;;;;5028994;28;20545;-89
2023/06/07 02:38:06;;;;;;;6.10;5.53;;;11.60;99.90;;;;;;5032543;28;20197;-89
2023/06/07 02:40:32;;;;;;;6.57;4.60;;;11.50;99.90;;;;;;5040981;28;20185;-87
2023/06/07 02:42:58;;;;;;;4.90;4.32;;;11.50;99.90;;;;;;5050299;28;20435;-88
2023/06/07 02:45:24;;;;;;;7.93;5.97;;;;;;;;;;5049882;28;20170;-85
2023/06/07 02:47:50;;;;;;;9.57;5.22;;;11.40;99.90;;;;;;5067350;28;20174;-87
2023/06/07 02:50:16;;;;;;;7.28;5.43;;;;;;;;;;5040642;28;20192;-88
2023/06/07 02:52:44;;;;;;;8.90;5.30;;;;;;;;;;5052037;28;20185;-87
2023/06/07 02:55:09;;;;;;;6.68;4.88;;;11.40;99.90;;;;;;5047384;28;20858;-87
2023/06/07 02:57:35;;;;;;;6.03;5.40;;;11.40;99.90;;;;;;5040348;28;20231;-88
2023/06/07 03:00:03;;;;;;;8.57;6.20;;;11.40;99.90;;;;;;5049953;28;20646;-87
2023/06/07 03:02:28;;;;;;;7.50;5.90;;;11.40;99.90;;;;;;5034837;28;20228;-87
2023/06/07 03:04:56;;;;;;;6.07;4.80;;;11.40;99.90;;;;;;5045010;28;20186;-88
2023/06/07 03:07:22;;;;;;;8.27;5.93;;;11.40;99.90;;;;;;5049876;28;20268;-88
2023/06/07 03:09:47;;;;;;;5.87;5.27;;;11.30;99.90;;;;;;5050811;28;20463;-88
2023/06/07 03:12:13;;;;;;;5.97;4.77;;;11.50;99.90;;;;;;5050179;28;20304;-85
2023/06/07 03:14:41;;;;;;;7.47;5.67;;;11.50;99.90;;;;;;5048327;28;20185;-88
2023/06/07 03:17:08;;;;;;;6.70;5.05;;;11.40;99.90;;;;;;5035773;28;20207;-88
2023/06/07 03:19:34;;;;;;;9.50;6.22;;;11.40;99.90;;;;;;5054573;28;20187;-88
2023/06/07 03:22:02;;;;;;;6.07;5.40;;;;;;;;;;5054884;28;20619;-88
2023/06/07 03:24:28;;;;;;;7.57;5.15;;;11.50;99.90;;;;;;5051521;28;20407;-87
2023/06/07 03:26:54;;;;;;;6.30;5.20;;;;;;;;;;5037747;28;20669;-87
2023/06/07 03:29:19;;;;;;;6.75;5.53;;;11.40;99.90;;;;;;5035928;28;20188;-87
2023/06/07 03:31:45;;;;;;;7.87;5.57;;;;;;;;;;5053261;28;20219;-88
2023/06/07 03:34:11;;;;;;;7.03;6.33;;;11.40;99.90;;;;;;5039112;28;20181;-86
2023/06/07 03:36:37;;;;;;;9.07;5.33;;;;;;;;;;5054123;28;21070;-88
2023/06/07 03:39:03;;;;;;;7.60;6.15;;;11.60;99.90;;;;;;5045732;28;20212;-87
2023/06/07 03:41:28;;;;;;;8.83;6.17;;;11.50;99.90;;;;;;5034521;28;20201;-87
2023/06/07 03:43:54;;;;;;;9.63;5.63;;;11.50;99.90;;;;;;5053810;28;20188;-88
2023/06/07 03:46:20;;;;;;;8.97;5.80;;;;;;;;;;5052081;28;20173;-86
2023/06/07 03:48:45;;;;;;;7.77;5.90;;;11.40;99.90;;;;;;5036493;28;20228;-87
2023/06/07 03:51:11;;;;;;;7.60;6.20;;;11.40;99.90;;;;;;5036622;28;20530;-89
2023/06/07 03:53:38;;;;;;;8.87;5.97;;;11.60;99.90;;;;;;5046897;28;20177;-87
2023/06/07 03:56:05;;;;;;;7.72;6.00;;;11.70;99.90;;;;;;5050883;28;20173;-86
2023/06/07 03:58:31;;;;;;;7.32;6.18;;;11.80;99.90;;;;;;5051230;28;20220;-88
2023/06/07 04:00:57;;;;;;;9.03;6.97;;;;;;;;;;5041695;28;20274;-87
2023/06/07 04:03:24;;;;;;;10.10;6.50;;;11.90;99.90;;;;;;5031769;28;20177;-87
2023/06/07 04:05:59;;;;;;;7.35;5.30;;;11.90;99.90;;;;;;5032369;28;20692;-85
2023/06/07 04:08:25;;;;;;;5.90;5.20;;;11.90;99.90;;;;;;5051503;28;20180;-86
2023/06/07 04:10:52;;;;;;;7.40;6.20;;;12.00;99.90;;;;;;5048022;28;20220;-86
2023/06/07 04:13:18;;;;;;;8.10;6.68;;;12.20;99.90;;;;;;5053569;28;20435;-90
2023/06/07 04:15:44;;;;;;;8.07;5.80;;;13.40;99.90;;;;;;5051518;28;20192;-86
2023/06/07 04:18:10;;;;;;;11.05;7.30;;;13.50;99.90;;;;;;5054184;28;21025;-90
2023/06/07 04:20:36;;;;;;;7.83;7.03;;;;;;;;;;5031882;28;20223;-87
2023/06/07 04:23:02;;;;;;;5.80;5.20;;;16.40;99.90;;;;;;5041439;28;20177;-87
2023/06/07 04:25:33;;;;;;;5.73;4.93;;;17.40;99.90;;;;;;5050794;28;20415;-85
2023/06/07 04:28:03;;;;;;;4.57;4.17;;;18.60;99.90;;;;;;5033343;28;20204;-88
2023/06/07 04:30:36;;;;;;;6.63;4.53;;;;;;;;;;5037739;28;20451;-88
2023/06/07 04:33:09;;;;;;;4.10;3.37;;;23.10;99.90;;;;;;5051993;28;20435;-87
2023/06/07 04:35:41;;;;;;;4.10;3.40;;;23.90;99.90;;;;;;5045827;28;20423;-87
2023/06/07 04:38:20;;;;;;;3.83;3.53;;;24.50;99.90;;;;;;5033509;28;20542;-87
2023/06/07 04:40:49;;;;;;;3.80;3.40;;;25.70;99.90;;;;;;5032858;28;20455;-89
2023/06/07 04:43:18;;;;;;;4.33;3.93;;;27.00;99.90;;;;;;5033374;28;20521;-88
2023/06/07 04:45:46;;;;;;;5.40;4.03;;;28.20;99.90;;;;;;5047129;28;20432;-88
2023/06/07 04:48:12;;;;;;;5.73;3.93;;;29.20;99.90;;;;;;5045542;28;20793;-88
2023/06/07 04:50:41;;;;;;;4.50;4.10;;;29.90;95.30;;;;;;5044592;28;20468;-89
2023/06/07 04:53:08;;;;;;;4.77;4.27;;;29.40;90.90;;;;;;5024332;28;20477;-88
2023/06/07 04:55:34;;;;;;;5.93;5.03;;;29.80;91.70;;;;;;5016825;28;20528;-89
2023/06/07 04:58:04;;;;;;;6.10;5.50;;;31.10;89.00;;;;;;5030272;28;21079;-90
2023/06/07 05:00:33;;;;;;;5.30;4.90;;;33.00;74.40;;;;;;5032935;28;20439;-90
2023/06/07 05:03:08;;;;;;;5.67;5.17;;;;;;;;;;5047384;28;20436;-89
2023/06/07 05:05:35;;;;;;;5.03;4.53;;;34.00;69.00;;;;;;5047408;28;20427;-90
2023/06/07 05:08:01;;;;;;;4.70;4.13;;;34.60;58.80;;;;;;5035939;28;20976;-89
2023/06/07 05:10:27;;;;;;;6.23;5.63;;;34.80;57.30;;;;;;5046165;28;20447;-89
2023/06/07 05:12:52;;;;;;;5.90;5.30;;;34.80;57.70;;;;;;5046932;28;21022;-89
2023/06/07 05:15:18;;;;;;;5.80;5.40;;;;;;;;;;5029336;28;20195;-89
2023/06/07 05:17:48;;;;;;;6.60;6.00;;;;;;;;;;5047793;28;20340;-89
2023/06/07 05:20:15;;;;;;;7.30;6.30;;;35.10;53.00;;;;;;5045941;28;20794;-89
2023/06/07 05:22:41;;;;;;;7.53;6.90;;;;;;;;;;5034493;28;20933;-89
2023/06/07 05:25:08;;;;;;;6.87;6.37;;;36.60;51.60;;;;;;5046938;28;20481;-88
2023/06/07 05:27:35;;;;;;;6.80;6.33;;;;;;;;;;5047183;28;21068;-89
2023/06/07 05:30:01;;;;;;;8.37;7.70;;;;;;;;;;5023105;28;20453;-88
2023/06/07 05:32:27;;;;;;;8.30;7.67;;;;;;;;;;5036894;28;20808;-89
2023/06/07 05:34:54;;;;;;;8.03;7.33;;;;;;;;;;5048728;28;20430;-90
2023/06/07 05:37:20;;;;;;;7.67;7.13;;;;;;;;;;5065089;28;20481;-88
2023/06/07 05:39:46;;;;;;;8.37;7.87;;;;;;;;;;5052160;28;20420;-89
2023/06/07 05:42:12;;;;;;;9.17;8.57;;;;;;;;;;5051660;28;20437;-89
2023/06/07 05:44:40;;;;;;;7.70;7.20;;;39.70;42.20;;;;;;5049023;28;20476;-89
2023/06/07 05:47:06;;;;;;;8.83;8.23;;;40.20;43.00;;;;;;5048943;28;20621;-90
2023/06/07 05:49:32;;;;;;;8.10;7.60;;;;;;;;;;5046802;28;20443;-90
2023/06/07 05:51:58;;;;;;;8.73;8.10;;;;;;;;;;5048875;28;20464;-90
2023/06/07 05:54:24;;;;;;;10.43;9.37;;;;;;;;;;5045814;28;20540;-89
2023/06/07 05:56:50;;;;;;;9.10;8.40;;;;;;;;;;5032777;28;20513;-89
2023/06/07 05:59:16;;;;;;;9.70;9.00;;;;;;;;;;5047183;28;20430;-89
2023/06/07 06:01:44;;;;;;;8.93;8.33;;;;;;;;;;5041456;28;20455;-90
2023/06/07 06:04:10;;;;;;;8.57;7.97;;;;;;;;;;5046189;28;20434;-90
2023/06/07 06:06:38;;;;;;;7.50;6.90;;;;;;;;;;5049780;28;20471;-89
2023/06/07 06:09:04;;;;;;;9.37;8.53;;;;;;;;;;5047352;28;20423;-90
2023/06/07 06:11:30;;;;;;;10.13;9.20;;;;;;;;;;5048429;28;20950;-88
2023/06/07 06:13:56;;;;;;;8.67;8.07;;;;;;;;;;5047555;28;20436;-89
2023/06/07 06:16:22;;;;;;;9.20;8.53;;;;;;;;;;5040227;28;20432;-88
2023/06/07 06:18:48;;;;;;;8.53;7.93;;;;;;;;;;5053041;28;20535;-88
2023/06/07 06:21:14;;;;;;;8.90;7.90;;;;;;;;;;5051251;28;20547;-89
2023/06/07 06:23:40;;;;;;;7.33;6.83;;;33.80;46.90;;;;;;5053573;28;20506;-89
2023/06/07 06:26:06;;;;;;;7.40;6.60;;;;;;;;;;5033655;28;20857;-90
2023/06/07 06:28:32;;;;;;;7.20;6.80;;;;;;;;;;5050819;28;20202;-89
2023/06/07 06:30:57;;;;;;;7.70;7.10;;;38.70;44.20;;;;;;5050127;28;20536;-89
2023/06/07 06:33:26;;;;;;;7.93;7.40;;;;;;;;;;5050410;28;20256;-90
2023/06/07 06:35:53;;;;;;;8.90;8.30;;;;;;;;;;5049825;28;20186;-91
2023/06/07 06:38:19;;;;;;;9.07;8.33;;;;;;;;;;5043451;28;20467;-91
2023/06/07 06:40:45;;;;;;;9.10;8.33;;;;;;;;;;5036869;28;20465;-90
2023/06/07 06:43:11;;;;;;;6.77;6.37;;;;;;;;;;5051913;28;20462;-90
2023/06/07 06:45:38;;;;;;;8.40;7.70;;;;;;;;;;5037959;28;20427;-90
2023/06/07 06:48:04;;;;;;;8.20;7.57;;;39.10;41.80;;;;;;5055401;28;20458;-90
2023/06/07 06:50:30;;;;;;;7.97;7.37;;;;;;;;;;5054270;28;20429;-91
2023/06/07 06:52:56;;;;;;;8.20;7.70;;;;;;;;;;5039691;28;20459;-91
2023/06/07 06:55:22;;;;;;;7.43;6.93;;;;;;;;;;5053155;28;20430;-91
2023/06/07 06:57:48;;;;;;;7.67;7.20;;;;;;;;;;5054980;28;20490;-90
2023/06/07 07:00:14;;;;;;;8.10;7.60;;;;;;;;;;5055156;28;20464;-91
2023/06/07 07:02:40;;;;;;;7.47;7.07;;;;;;;;;;5050292;28;20422;-91
2023/06/07 07:05:07;;;;;;;7.90;7.50;;;;;;;;;;5063067;28;20411;-90
2023/06/07 07:07:33;;;;;;;7.73;7.33;;;;;;;;;;5056425;28;20450;-90
2023/06/07 07:09:59;;;;;;;7.63;7.23;;;;;;;;;;5057002;28;20738;-90
2023/06/07 07:12:25;;;;;;;7.17;6.57;;;;;;;;;;5054533;28;21034;-90
2023/06/07 07:14:51;;;;;;;6.90;6.50;;;;;;;;;;5055066;28;20500;-89
2023/06/07 07:17:18;;;;;;;7.07;6.63;;;;;;;;;;5047647;28;20540;-90
2023/06/07 07:19:44;;;;;;;6.80;6.40;;;;;;;;;;5054516;28;20435;-90
2023/06/07 07:22:10;;;;;;;8.57;7.87;;;;;;;;;;5053517;28;20435;-90
2023/06/07 07:24:36;;;;;;;7.60;7.20;;;;;;;;;;5052477;28;20441;-90
2023/06/07 07:27:01;;;;;;;7.53;7.13;;;37.60;36.20;;;;;;5042216;28;20465;-89
2023/06/07 07:29:27;;;;;;;7.77;7.37;;;;;;;;;;5054181;28;20296;-90
2023/06/07 07:31:53;;;;;;;8.23;7.63;;;;;;;;;;5053583;28;20218;-89
2023/06/07 07:34:19;;;;;;;7.67;7.17;;;;;;;;;;5038652;28;20435;-90
2023/06/07 07:36:46;;;;;;;8.27;7.77;;;;;;;;;;5053569;28;20454;-91
2023/06/07 07:39:15;;;;;;;5.30;5.00;;;35.20;41.70;;;;;;5050253;28;20417;-90
2023/06/07 07:41:41;;;;;;;6.33;5.93;;;33.00;43.70;;;;;;5020287;28;20807;-89
2023/06/07 07:44:07;;;;;;;6.50;6.10;;;;;;;;;;5049237;28;20444;-90
2023/06/07 07:46:32;;;;;;;5.53;5.23;;;32.50;46.00;;;;;;5037448;28;20753;-90
2023/06/07 07:48:58;;;;;;;5.40;5.10;;;;;;;;;;5034558;28;20437;-90
2023/06/07 07:51:24;;;;;;;5.40;5.00;;;;;;;;;;5047859;28;20853;-88
2023/06/07 07:53:53;;;;;;;5.20;4.90;;;33.10;45.60;;;;;;5047608;28;20495;-89
2023/06/07 07:56:21;;;;;;;5.40;4.90;;;;;;;;;;5046795;28;20441;-89
2023/06/07 07:58:47;;;;;;;5.90;5.47;;;36.40;44.00;;;;;;5047375;28;20423;-90
2023/06/07 08:01:18;;;;;;;6.60;6.20;;;36.40;41.80;;;;;;5046011;28;20472;-90
2023/06/07 08:03:44;;;;;;;5.80;5.47;;;;;;;;;;5031015;28;20421;-90
2023/06/07 08:06:10;;;;;;;5.73;5.33;;;;;;;;;;5046186;28;20436;-90
2023/06/07 08:08:36;;;;;;;6.57;6.17;;;;;;;;;;5032656;28;20467;-89
2023/06/07 08:11:02;;;;;;;6.47;6.07;;;;;;;;;;5037338;28;20608;-90
2023/06/07 08:13:28;;;;;;;6.30;5.80;;;;;;;;;;5046928;28;20973;-90
2023/06/07 08:15:54;;;;;;;6.60;6.10;;;;;;;;;;5025823;28;20434;-89
2023/06/07 08:18:20;;;;;;;7.50;7.00;;;;;;;;;;5032043;28;20451;-90
2023/06/07 08:20:46;;;;;;;6.70;6.40;;;;;;;;;;5046615;28;20860;-91
2023/06/07 08:23:12;;;;;;;7.20;6.57;;;;;;;;;;5053796;28;20416;-88
2023/06/07 08:25:38;;;;;;;7.00;6.43;;;;;;;;;;5049081;28;21336;-91
2023/06/07 08:28:04;;;;;;;6.87;6.37;;;;;;;;;;5033689;28;20458;-90
2023/06/07 08:30:31;;;;;;;6.60;6.20;;;;;;;;;;5055244;28;20416;-91
2023/06/07 08:32:57;;;;;;;7.20;6.70;;;;;;;;;;5062906;28;20411;-90
2023/06/07 08:35:22;;;;;;;6.90;6.30;;;32.50;46.40;;;;;;5050698;28;20811;-88
2023/06/07 08:37:48;;;;;;;7.20;6.70;;;33.90;46.50;;;;;;5049621;28;20982;-89
2023/06/07 08:40:18;;;;;;;6.20;5.70;;;29.80;49.60;;;;;;5032431;28;20181;-90
2023/06/07 08:42:43;;;;;;;5.80;5.40;;;29.80;50.10;;;;;;5050525;28;20181;-90
2023/06/07 08:45:10;;;;;;;6.23;5.63;;;30.50;51.60;;;;;;5035300;28;20555;-88
2023/06/07 08:47:36;;;;;;;7.50;6.90;;;;;;;;;;5048298;28;20196;-89
2023/06/07 08:50:02;;;;;;;6.70;6.10;;;34.80;44.80;;;;;;5047041;28;20801;-88
2023/06/07 08:52:30;;;;;;;7.60;7.00;;;36.00;42.90;;;;;;5032969;28;20458;-90
2023/06/07 08:54:58;;;;;;;7.20;6.70;;;34.80;44.20;;;;;;5048895;28;20818;-89
2023/06/07 08:57:25;;;;;;;6.60;6.10;;;;;;;;;;5045067;28;20451;-88
2023/06/07 08:59:52;;;;;;;8.30;7.60;;;36.00;43.70;;;;;;5047387;28;20418;-89
2023/06/07 09:02:19;;;;;;;7.33;6.73;;;;;;;;;;5037537;28;20455;-89
2023/06/07 09:04:45;;;;;;;7.70;7.00;;;;;;;;;;5044622;28;20441;-90
2023/06/07 09:07:12;;;;;;;7.53;6.93;;;37.40;40.60;;;;;;5047487;28;20447;-90
2023/06/07 09:09:40;;;;;;;7.47;6.87;;;37.40;40.80;;;;;;5032324;28;20441;-89
2023/06/07 09:12:06;;;;;;;8.20;7.60;;;;;;;;;;5048999;28;20446;-88
2023/06/07 09:14:33;;;;;;;8.17;7.40;;;;;;;;;;5045667;28;20476;-89
2023/06/07 09:17:00;;;;;;;8.20;7.60;;;38.40;40.20;;;;;;5048578;28;20531;-89
2023/06/07 09:19:35;;;;;;;8.57;8.07;;;38.80;39.20;;;;;;5048960;28;20437;-88
2023/06/07 09:22:03;;;;;;;8.47;7.87;;;38.70;38.70;;;;;;5049681;28;20450;-89
2023/06/07 09:24:30;;;;;;;8.03;7.43;;;38.40;38.80;;;;;;5047373;28;20762;-88
2023/06/07 09:26:56;;;;;;;8.20;7.60;;;;;;;;;;5048546;28;20489;-89
2023/06/07 09:29:22;;;;;;;7.83;7.37;;;;;;;;;;5048546;28;20457;-89
2023/06/07 09:31:48;;;;;;;7.40;6.90;;;37.90;38.70;;;;;;5048003;28;20464;-88
2023/06/07 09:34:26;;;;;;;7.40;6.90;;;37.60;40.20;;;;;;5048300;28;20433;-89
2023/06/07 09:36:52;;;;;;;6.80;6.40;;;;;;;;;;5028742;28;20461;-89
2023/06/07 09:39:22;;;;;;;6.40;6.00;;;35.90;40.30;;;;;;5037963;28;20777;-88
2023/06/07 09:41:49;;;;;;;6.20;5.70;;;;;;;;;;5047771;28;20458;-88
2023/06/07 09:44:25;;;;;;;5.13;4.83;;;32.40;44.60;;;;;;5049421;28;20429;-88
2023/06/07 09:46:51;;;;;;;5.20;4.73;;;;;;;;;;5037811;28;20524;-89
2023/06/07 09:49:28;;;;;;;5.70;5.30;;;31.20;45.90;;;;;;5046680;28;20440;-89
2023/06/07 09:51:54;;;;;;;6.23;5.77;;;31.20;48.20;;;;;;5047808;28;20458;-88
2023/06/07 09:54:38;;;;;;;5.43;5.13;;;32.60;46.30;;;;;;5049067;28;20471;-88
2023/06/07 09:57:08;;;;;;;5.33;5.03;;;32.80;47.20;;;;;;5048366;28;20233;-89
2023/06/07 09:59:35;;;;;;;4.70;4.40;;;33.40;45.40;;;;;;5044193;28;20437;-88
2023/06/07 10:02:01;;;;;;;4.50;4.20;;;31.30;46.40;;;;;;5045427;28;20452;-89
2023/06/07 10:04:26;;;;;;;4.70;4.40;;;;;;;;;;5046345;28;20441;-88
2023/06/07 10:06:57;;;;;;;5.20;4.80;;;29.50;49.80;;;;;;5034448;28;20190;-88
2023/06/07 10:09:26;;;;;;;3.83;3.60;;;29.70;51.80;;;;;;5050529;28;20412;-89
2023/06/07 10:11:57;;;;;;;4.43;4.23;;;32.70;47.60;;;;;;5046808;28;20583;-88
2023/06/07 10:14:29;;;;;;;5.27;4.80;;;33.40;48.60;;;;;;5044332;28;20434;-90
2023/06/07 10:17:03;;;;;;;5.27;4.83;;;35.70;43.40;;;;;;5044754;28;20467;-90
2023/06/07 10:19:37;;;;;;;6.00;5.70;;;35.50;43.70;;;;;;5048205;28;20459;-88
2023/06/07 10:22:08;;;;;;;6.13;5.80;;;34.90;43.50;;;;;;5050856;28;20539;-89
2023/06/07 10:24:46;;;;;;;5.50;5.10;;;33.50;44.10;;;;;;5053555;28;20409;-88
2023/06/07 10:27:16;;;;;;;4.47;4.17;;;28.30;50.30;;;;;;5041439;28;20452;-88
2023/06/07 10:29:53;;;;;;;3.87;3.57;;;26.90;54.80;;;;;;5054141;28;20983;-88
2023/06/07 10:32:27;;;;;;;2.80;2.60;;;26.80;55.30;;;;;;5053759;28;20443;-88
2023/06/07 10:34:55;;;;;;;3.03;2.83;;;26.40;59.30;;;;;;5053399;28;20439;-87
2023/06/07 10:37:21;;;;;;;3.43;3.07;;;25.10;60.70;;;;;;5054722;28;20444;-88
2023/06/07 10:39:48;;;;;;;3.00;2.80;;;;;;;;;;5055665;28;20602;-88
2023/06/07 10:42:15;;;;;;;4.10;2.40;;;;;;;;;;5051789;28;20508;-88
2023/06/07 10:44:42;;;;;;;2.70;2.20;;;24.90;68.30;;;;;;5048884;28;20423;-89
2023/06/07 10:47:24;;;;;;;3.10;2.87;;;25.20;67.90;;;;;;5031175;28;20500;-88
2023/06/07 10:49:50;;;;;;;2.50;2.30;;;25.60;65.20;;;;;;5052775;28;20422;-89
2023/06/07 10:52:16;;;;;;;3.07;2.70;;;25.60;66.10;;;;;;5035156;28;20466;-89
2023/06/07 10:54:43;;;;;;;3.30;2.47;;;26.20;69.90;;;;;;5052822;28;20436;-88
2023/06/07 10:57:10;;;;;;;2.50;1.97;;;;;;;;;;5046922;28;20741;-88
2023/06/07 10:59:36;;;;;;;2.67;2.47;;;;;;;;;;5054133;28;20481;-88
2023/06/07 11:02:22;;;;;;;3.20;2.90;;;25.00;67.10;;;;;;5056224;28;20849;-89
2023/06/07 11:04:51;;;;;;;3.13;2.93;;;25.30;68.90;;;;;;5055839;28;20432;-88
2023/06/07 11:07:17;;;;;;;3.00;2.80;;;25.50;70.10;;;;;;5044138;28;20439;-89
2023/06/07 11:09:43;;;;;;;2.23;2.07;;;25.70;68.10;;;;;;5053024;28;20472;-89
2023/06/07 11:12:16;;;;;;;2.43;2.23;;;26.00;68.20;;;;;;5053452;28;20448;-88
2023/06/07 11:15:17;;;;;;;2.70;2.43;;;26.60;66.40;;;;;;5051251;28;20997;-88
2023/06/07 11:17:56;;;;;;;2.87;2.67;;;26.60;66.80;;;;;;5046840;28;21050;-89
2023/06/07 11:20:37;;;;;;;2.00;1.90;;;26.60;62.10;;;;;;5060023;28;20445;-86
2023/06/07 11:23:22;;;;;;;2.67;2.10;;;26.50;61.90;;;;;;5064932;28;20432;-88
2023/06/07 11:25:50;;;;;;;2.23;2.03;;;25.40;65.60;;;;;;5054872;28;20471;-88
2023/06/07 11:28:16;;;;;;;2.40;2.20;;;24.80;69.00;;;;;;5064300;28;20441;-86
2023/06/07 11:30:42;;;;;;;2.30;2.10;;;24.90;69.20;;;;;;5045858;28;20455;-87
2023/06/07 11:33:21;;;;;;;2.10;1.90;;;24.80;74.10;;;;;;5060471;28;20408;-88
2023/06/07 11:35:48;;;;;;;2.60;2.40;;;25.50;68.90;;;;;;5053735;28;20515;-88
2023/06/07 11:38:14;;;;;;;2.40;2.20;;;;;;;;;;5057069;28;20507;-89
2023/06/07 11:40:40;;;;;;;3.00;2.10;;;25.60;68.20;;;;;;5041613;28;20417;-88
2023/06/07 11:43:11;;;;;;;2.37;1.97;;;25.70;67.10;;;;;;5055989;28;20515;-89
2023/06/07 11:45:41;;;;;;;2.53;2.30;;;25.70;67.90;;;;;;5052661;28;20180;-88
2023/06/07 11:48:07;;;;;;;2.80;1.97;;;25.60;66.70;;;;;;5035316;28;20409;-89
2023/06/07 11:50:37;;;;;;;3.00;2.70;;;25.80;64.80;;;;;;5053129;28;20444;-88
2023/06/07 11:53:03;;;;;;;1.80;1.70;;;25.60;65.50;;;;;;5034842;28;20427;-90
2023/06/07 11:55:30;;;;;;;2.50;2.30;;;26.00;68.50;;;;;;5049569;28;20589;-88
2023/06/07 11:57:56;;;;;;;1.60;1.50;;;25.30;69.80;;;;;;5050902;28;20457;-88
2023/06/07 12:00:27;;;;;;;2.40;2.10;;;25.90;69.50;;;;;;5050457;28;20416;-88
2023/06/07 12:02:53;;;;;;;3.13;2.17;;;;;;;;;;5054345;28;20424;-89
2023/06/07 12:05:21;;;;;;;1.70;1.60;;;26.00;64.60;;;;;;5040968;28;20421;-88
2023/06/07 12:07:58;;;;;;;5.20;2.47;;;25.80;65.00;;;;;;5033269;28;21081;-89
2023/06/07 12:10:24;;;;;;;2.30;2.10;;;24.50;68.00;;;;;;5050498;28;20451;-87
2023/06/07 12:13:13;;;;;;;2.40;2.20;;;24.20;71.10;;;;;;5044602;28;20519;-88
2023/06/07 12:15:46;;;;;;;2.30;2.10;;;24.20;72.50;;;;;;5035121;28;20434;-88
2023/06/07 12:18:13;;;;;;;1.80;1.70;;;24.20;72.00;;;;;;5034678;28;21118;-88
2023/06/07 12:20:41;;;;;;;2.20;2.00;;;25.30;68.60;;;;;;5047990;28;20438;-88
2023/06/07 12:23:07;;;;;;;1.97;1.77;;;;;;;;;;5048643;28;20425;-87
2023/06/07 12:25:36;;;;;;;2.63;2.43;;;;;;;;;;5047746;28;20479;-89
2023/06/07 12:28:06;;;;;;;2.60;1.90;;;25.90;68.10;;;;;;5044282;28;20896;-89
2023/06/07 12:30:33;;;;;;;2.03;1.90;;;25.10;66.60;;;;;;5045984;28;20430;-88
2023/06/07 12:32:59;;;;;;;2.40;1.90;;;24.90;67.10;;;;;;5048483;28;20440;-89
2023/06/07 12:35:25;;;;;;;3.20;2.20;;;;;;;;;;5043172;28;20463;-89
2023/06/07 12:37:50;;;;;;;2.03;1.90;;;25.30;66.10;;;;;;5048555;28;20484;-89
2023/06/07 12:40:16;;;;;;;2.30;2.10;;;25.60;66.50;;;;;;5030186;28;20432;-88
2023/06/07 12:42:41;;;;;;;2.27;2.10;;;25.50;67.10;;;;;;5046902;28;20690;-89
2023/06/07 12:45:08;;;;;;;2.10;2.00;;;25.30;68.00;;;;;;5026327;28;20184;-90
2023/06/07 12:47:34;;;;;;;2.43;1.93;;;;;;;;;;5034818;28;20204;-87
2023/06/07 12:49:59;;;;;;;3.10;2.27;;;25.10;69.00;;;;;;5021497;28;20494;-88
2023/06/07 12:52:25;;;;;;;3.13;2.10;;;;;;;;;;5046401;28;20910;-89
2023/06/07 12:54:52;;;;;;;2.13;1.93;;;25.50;66.80;;;;;;5048802;28;20245;-88
2023/06/07 12:57:18;;;;;;;2.83;1.90;;;;;;;;;;5066233;28;20460;-89
2023/06/07 12:59:44;;;;;;;1.83;1.60;;;;;;;;;;5053159;28;20844;-88
2023/06/07 13:02:10;;;;;;;2.40;2.20;;;;;;;;;;5047130;28;20582;-89
2023/06/07 13:04:36;;;;;;;2.43;2.23;;;;;;;;;;5048944;28;20428;-88
2023/06/07 13:07:02;;;;;;;2.47;2.27;;;;;;;;;;5048987;28;20835;-87
2023/06/07 13:09:27;;;;;;;1.90;1.80;;;25.20;67.10;;;;;;5048325;28;20524;-87
2023/06/07 13:11:54;;;;;;;1.80;1.70;;;25.10;69.20;;;;;;5050852;28;20524;-88
2023/06/07 13:14:19;;;;;;;2.50;2.10;;;24.80;68.40;;;;;;5043042;28;20185;-89
2023/06/07 13:16:45;;;;;;;2.47;2.10;;;25.00;68.80;;;;;;5047985;28;20460;-89
2023/06/07 13:19:11;;;;;;;2.17;2.07;;;25.40;66.10;;;;;;5047614;28;20181;-89
2023/06/07 13:21:37;;;;;;;2.50;2.30;;;;;;;;;;5029124;28;21235;-89
2023/06/07 13:24:03;;;;;;;2.13;1.53;;;25.60;62.40;;;;;;5047116;28;20521;-90
2023/06/07 13:26:29;;;;;;;1.67;1.57;;;;;;;;;;5048151;28;20424;-89
2023/06/07 13:28:55;;;;;;;1.60;1.50;;;;;;;;;;5045550;28;20203;-89